| time (UTC) | temp C | wind direction | speed KPH | gust KPH | rain 1hr cm | rain 24hr cm | rain mn cm | humidity % | barometer mb |
| 20260510171107 | 28 | 22 | 4.8 | 9.7 | 0.00 | 0.48 | 0.00 | 78 | 1016.1 |
| 20260510170107 | 31 | 30 | 3.2 | 8.0 | 0.00 | 0.48 | 0.00 | 71 | 1016.0 |
| 20260510165608 | 31 | 57 | 3.2 | 9.7 | 0.00 | 0.48 | 0.00 | 67 | 1015.9 |
| 20260510165107 | 31 | 115 | 3.2 | 8.0 | 0.00 | 0.48 | 0.00 | 67 | 1016.0 |
| 20260510164608 | 31 | 120 | 1.6 | 8.0 | 0.00 | 0.48 | 0.00 | 69 | 1016.0 |
| 20260510164107 | 31 | 157 | 4.8 | 11.3 | 0.00 | 0.48 | 0.00 | 69 | 1016.2 |
| 20260510163608 | 30 | 190 | 6.4 | 12.9 | 0.00 | 0.48 | 0.00 | 70 | 1016.3 |
| 20260510163107 | 31 | 32 | 0.0 | 4.8 | 0.00 | 0.48 | 0.00 | 70 | 1016.3 |
| 20260510162607 | 30 | 27 | 1.6 | 3.2 | 0.00 | 0.48 | 0.00 | 73 | 1016.4 |
| 20260510162109 | 30 | 113 | 1.6 | 4.8 | 0.00 | 0.48 | 0.00 | 71 | 1016.4 |
| 20260510161107 | 29 | 107 | 0.0 | 3.2 | 0.00 | 0.48 | 0.00 | 75 | 1016.5 |
| 20260510160606 | 29 | 322 | 1.6 | 3.2 | 0.00 | 0.48 | 0.00 | 75 | 1016.4 |
| 20260510160106 | 29 | 322 | 1.6 | 8.0 | 0.00 | 0.48 | 0.00 | 75 | 1016.3 |
| 20260510155607 | 30 | 114 | 1.6 | 3.2 | 0.00 | 0.48 | 0.00 | 74 | 1016.4 |
| 20260510155108 | 29 | 128 | 4.8 | 8.0 | 0.00 | 0.48 | 0.00 | 75 | 1016.5 |
| 20260510154607 | 28 | 313 | 1.6 | 11.3 | 0.00 | 0.48 | 0.00 | 78 | 1016.5 |
| 20260510154107 | 29 | 313 | 0.0 | 4.8 | 0.00 | 0.48 | 0.00 | 77 | 1016.6 |
| 20260510153607 | 29 | 358 | 1.6 | 8.0 | 0.00 | 0.48 | 0.00 | 78 | 1016.6 |
| 20260510153107 | 28 | 330 | 3.2 | 8.0 | 0.00 | 0.48 | 0.00 | 79 | 1016.6 |
| 20260510151607 | 27 | 38 | 1.6 | 4.8 | 0.00 | 0.48 | 0.00 | 85 | 1016.6 |
| 20260510151107 | 27 | 323 | 4.8 | 12.9 | 0.00 | 0.48 | 0.00 | 89 | 1016.5 |
| 20260510150607 | 27 | 327 | 3.2 | 9.7 | 0.00 | 0.48 | 0.00 | 95 | 1016.5 |
| 20260510150106 | 26 | 35 | 0.0 | 3.2 | 0.00 | 0.48 | 0.00 | 97 | 1016.5 |
| 20260510145606 | 26 | 141 | 1.6 | 9.7 | 0.00 | 0.48 | 0.00 | 98 | 1016.5 |
| 20260510145107 | 26 | 107 | 0.0 | 3.2 | 0.00 | 0.48 | 0.00 | 98 | 1016.5 |
| 20260510144107 | 26 | 93 | 1.6 | 4.8 | 0.00 | 0.48 | 0.00 | 99 | 1016.4 |
| 20260510143607 | 26 | 119 | 1.6 | 8.0 | 0.00 | 0.48 | 0.00 | 99 | 1016.3 |
| 20260510143106 | 25 | 137 | 4.8 | 9.7 | 0.00 | 0.48 | 0.00 | 99 | 1016.4 |
| 20260510142607 | 25 | 229 | 1.6 | 4.8 | 0.00 | 0.48 | 0.00 | 99 | 1016.4 |
| 20260510142107 | 25 | 144 | 1.6 | 3.2 | 0.00 | 0.48 | 0.00 | 99 | 1016.4 |
| 20260510141607 | 25 | 136 | 4.8 | 4.8 | 0.00 | 0.48 | 0.00 | 99 | 1016.4 |
| 20260510141107 | 25 | 117 | 0.0 | 1.6 | 0.00 | 0.48 | 0.00 | 99 | 1016.2 |
| 20260510140107 | 25 | 110 | 1.6 | 8.0 | 0.00 | 0.48 | 0.00 | 99 | 1016.0 |
| 20260510135606 | 25 | 1 | 0.0 | 3.2 | 0.00 | 0.48 | 0.00 | 99 | 1016.0 |
| 20260510135106 | 25 | 96 | 0.0 | 3.2 | 0.00 | 0.48 | 0.00 | 99 | 1016.0 |
| 20260510134606 | 24 | 96 | 0.0 | 1.6 | 0.00 | 0.48 | 0.00 | 99 | 1016.0 |
| 20260510134107 | 24 | 119 | 3.2 | 3.2 | 0.00 | 0.48 | 0.00 | 99 | 1015.9 |
| 20260510133606 | 24 | 124 | 0.0 | 0.0 | 0.00 | 0.48 | 0.00 | 99 | 1015.8 |
| 20260510133107 | 24 | 125 | 0.0 | 1.6 | 0.00 | 0.48 | 0.00 | 99 | 1015.8 |
| 20260510132606 | 23 | 125 | 0.0 | 8.0 | 0.00 | 0.48 | 0.00 | 99 | 1015.8 |
| 20260510132107 | 23 | 149 | 1.6 | 8.0 | 0.00 | 0.48 | 0.00 | 99 | 1015.8 |
| 20260510130606 | 23 | 133 | 1.6 | 8.0 | 0.00 | 0.48 | 0.00 | 99 | 1015.6 |
| 20260510130107 | 23 | 122 | 0.0 | 3.2 | 0.00 | 0.48 | 0.00 | 99 | 1015.7 |
| 20260510125607 | 23 | 100 | 0.0 | 1.6 | 0.00 | 0.48 | 0.00 | 99 | 1015.7 |
| 20260510125106 | 23 | 100 | 1.6 | 1.6 | 0.00 | 0.48 | 0.00 | 99 | 1015.6 |
| 20260510124606 | 23 | 99 | 0.0 | 1.6 | 0.00 | 0.48 | 0.00 | 99 | 1015.5 |
| 20260510124106 | 23 | 99 | 0.0 | 0.0 | 0.00 | 0.48 | 0.00 | 99 | 1015.6 |
| 20260510123606 | 23 | 99 | 0.0 | 0.0 | 0.00 | 0.48 | 0.00 | 99 | 1015.5 |
| 20260510123107 | 23 | 99 | 0.0 | 0.0 | 0.00 | 0.48 | 0.00 | 99 | 1015.3 |
| 20260510122606 | 23 | 99 | 0.0 | 1.6 | 0.00 | 0.48 | 0.00 | 99 | 1015.3 |
| 20260510122106 | 22 | 99 | 0.0 | 0.0 | 0.00 | 0.48 | 0.00 | 99 | 1015.2 |
| 20260510121607 | 22 | 99 | 0.0 | 1.6 | 0.00 | 0.48 | 0.00 | 99 | 1015.2 |
| 20260510121106 | 22 | 100 | 0.0 | 0.0 | 0.00 | 0.48 | 0.00 | 99 | 1015.0 |
| 20260510120606 | 22 | 100 | 0.0 | 0.0 | 0.00 | 0.48 | 0.00 | 99 | 1015.0 |
| 20260510120106 | 22 | 100 | 0.0 | 0.0 | 0.00 | 0.48 | 0.00 | 99 | 1015.0 |
| 20260510115606 | 22 | 100 | 0.0 | 0.0 | 0.00 | 0.48 | 0.00 | 99 | 1015.0 |
| 20260510115106 | 22 | 100 | 0.0 | 0.0 | 0.00 | 0.48 | 0.00 | 99 | 1014.9 |
| 20260510114606 | 22 | 100 | 0.0 | 0.0 | 0.00 | 0.48 | 0.00 | 99 | 1014.8 |
| 20260510114106 | 21 | 100 | 0.0 | 0.0 | 0.00 | 0.48 | 0.00 | 99 | 1014.9 |
| 20260510113606 | 21 | 100 | 0.0 | 0.0 | 0.00 | 0.48 | 0.00 | 99 | 1014.8 |
| 20260510112606 | 21 | 100 | 0.0 | 0.0 | 0.00 | 0.48 | 0.00 | 99 | 1014.7 |
| 20260510111606 | 21 | 100 | 0.0 | 0.0 | 0.00 | 0.48 | 0.00 | 99 | 1014.5 |
| 20260510111105 | 21 | 100 | 0.0 | 0.0 | 0.00 | 0.48 | 0.00 | 99 | 1014.4 |
| 20260510110606 | 21 | 100 | 0.0 | 0.0 | 0.00 | 0.48 | 0.00 | 99 | 1014.4 |
| 20260510110107 | 21 | 100 | 0.0 | 0.0 | 0.00 | 0.48 | 0.00 | 99 | 1014.4 |
| 20260510105105 | 21 | 100 | 0.0 | 0.0 | 0.00 | 0.48 | 0.00 | 99 | 1014.3 |
| 20260510104606 | 21 | 100 | 0.0 | 0.0 | 0.00 | 0.48 | 0.00 | 99 | 1014.2 |
| 20260510103105 | 21 | 100 | 0.0 | 0.0 | 0.00 | 0.48 | 0.00 | 99 | 1013.9 |
| 20260510102606 | 21 | 100 | 0.0 | 0.0 | 0.00 | 0.48 | 0.00 | 99 | 1013.8 |
| 20260510102106 | 21 | 100 | 0.0 | 0.0 | 0.00 | 0.48 | 0.00 | 99 | 1013.8 |
| 20260510101605 | 21 | 100 | 0.0 | 0.0 | 0.00 | 0.48 | 0.00 | 99 | 1013.7 |
| 20260510101106 | 21 | 100 | 0.0 | 0.0 | 0.00 | 0.48 | 0.00 | 99 | 1013.6 |
| 20260510100606 | 21 | 100 | 0.0 | 0.0 | 0.00 | 0.48 | 0.00 | 99 | 1013.4 |
| 20260510100106 | 21 | 100 | 0.0 | 0.0 | 0.00 | 0.48 | 0.00 | 99 | 1013.5 |
| 20260510095606 | 21 | 100 | 0.0 | 0.0 | 0.00 | 0.48 | 0.00 | 99 | 1013.4 |
| 20260510095106 | 21 | 100 | 0.0 | 0.0 | 0.00 | 0.48 | 0.00 | 99 | 1013.5 |
| 20260510094606 | 21 | 100 | 0.0 | 0.0 | 0.00 | 0.48 | 0.00 | 99 | 1013.5 |
| 20260510094105 | 22 | 100 | 0.0 | 0.0 | 0.00 | 0.48 | 0.00 | 99 | 1013.4 |
| 20260510093606 | 22 | 100 | 0.0 | 0.0 | 0.00 | 0.48 | 0.00 | 99 | 1013.4 |
| 20260510093106 | 22 | 100 | 0.0 | 0.0 | 0.00 | 0.48 | 0.00 | 99 | 1013.4 |
| 20260510092606 | 22 | 100 | 0.0 | 0.0 | 0.00 | 0.48 | 0.00 | 99 | 1013.3 |
| 20260510092106 | 22 | 100 | 0.0 | 0.0 | 0.00 | 0.48 | 0.00 | 99 | 1013.3 |
| 20260510091105 | 22 | 100 | 0.0 | 1.6 | 0.00 | 0.48 | 0.00 | 99 | 1013.1 |
| 20260510090605 | 22 | 100 | 0.0 | 1.6 | 0.00 | 0.48 | 0.00 | 99 | 1013.0 |
| 20260510090105 | 22 | 100 | 0.0 | 3.2 | 0.00 | 0.48 | 0.00 | 99 | 1013.0 |
| 20260510085606 | 22 | 99 | 0.0 | 0.0 | 0.00 | 0.48 | 0.00 | 99 | 1013.0 |
| 20260510085105 | 22 | 99 | 0.0 | 1.6 | 0.00 | 0.48 | 0.00 | 99 | 1013.0 |
| 20260510084605 | 22 | 99 | 0.0 | 3.2 | 0.00 | 0.48 | 0.00 | 99 | 1012.9 |
| 20260510084105 | 22 | 78 | 0.0 | 0.0 | 0.00 | 0.48 | 0.00 | 99 | 1012.8 |
| 20260510083106 | 22 | 78 | 0.0 | 0.0 | 0.00 | 0.48 | 0.00 | 99 | 1012.7 |
| 20260510082606 | 22 | 78 | 0.0 | 0.0 | 0.00 | 0.48 | 0.00 | 99 | 1012.8 |
| 20260510082105 | 22 | 78 | 0.0 | 1.6 | 0.00 | 0.48 | 0.00 | 99 | 1012.7 |
| 20260510081606 | 22 | 78 | 0.0 | 1.6 | 0.00 | 0.48 | 0.00 | 99 | 1012.6 |
| 20260510081105 | 22 | 78 | 0.0 | 1.6 | 0.00 | 0.48 | 0.00 | 99 | 1012.7 |
| 20260510080606 | 22 | 78 | 0.0 | 1.6 | 0.00 | 0.48 | 0.00 | 99 | 1012.7 |
| 20260510080105 | 22 | 78 | 0.0 | 1.6 | 0.00 | 0.48 | 0.00 | 99 | 1012.7 |
| 20260510075605 | 22 | 65 | 0.0 | 0.0 | 0.00 | 0.48 | 0.00 | 99 | 1012.7 |
| 20260510075105 | 22 | 65 | 0.0 | 0.0 | 0.00 | 0.48 | 0.00 | 99 | 1012.6 |
| 20260510073605 | 22 | 65 | 0.0 | 0.0 | 0.00 | 0.48 | 0.00 | 99 | 1012.9 |
| 20260510073105 | 22 | 65 | 0.0 | 0.0 | 0.00 | 0.48 | 0.00 | 99 | 1012.9 |
| 20260510072605 | 22 | 65 | 0.0 | 0.0 | 0.00 | 0.48 | 0.00 | 99 | 1012.9 |
| 20260510072105 | 22 | 65 | 0.0 | 0.0 | 0.00 | 0.48 | 0.00 | 99 | 1013.0 |
| 20260510071605 | 22 | 65 | 0.0 | 0.0 | 0.00 | 0.48 | 0.00 | 99 | 1013.0 |
| 20260510071105 | 22 | 65 | 0.0 | 0.0 | 0.00 | 0.48 | 0.00 | 99 | 1013.0 |
| 20260510070105 | 22 | 65 | 0.0 | 0.0 | 0.00 | 0.48 | 0.00 | 99 | 1013.0 |
| 20260510065605 | 22 | 65 | 0.0 | 0.0 | 0.00 | 0.48 | 0.00 | 99 | 1013.0 |
| 20260510065105 | 22 | 65 | 0.0 | 0.0 | 0.00 | 0.48 | 0.00 | 99 | 1013.1 |
| 20260510064606 | 22 | 65 | 0.0 | 0.0 | 0.00 | 0.48 | 0.00 | 99 | 1013.3 |
| 20260510064105 | 22 | 65 | 0.0 | 0.0 | 0.00 | 0.48 | 0.00 | 99 | 1013.4 |
| 20260510063605 | 22 | 65 | 0.0 | 0.0 | 0.00 | 0.48 | 0.00 | 99 | 1013.5 |
| 20260510063105 | 22 | 65 | 0.0 | 0.0 | 0.00 | 0.48 | 0.00 | 99 | 1013.6 |
| 20260510062606 | 22 | 65 | 0.0 | 0.0 | 0.00 | 0.48 | 0.00 | 99 | 1013.7 |
| 20260510062104 | 22 | 65 | 0.0 | 0.0 | 0.00 | 0.48 | 0.00 | 99 | 1013.6 |
| 20260510061105 | 22 | 65 | 0.0 | 0.0 | 0.00 | 0.48 | 0.00 | 99 | 1013.9 |
| 20260510060605 | 22 | 65 | 0.0 | 0.0 | 0.00 | 0.48 | 0.00 | 99 | 1013.8 |
| 20260510060105 | 22 | 65 | 0.0 | 0.0 | 0.00 | 0.48 | 0.00 | 99 | 1013.9 |
| 20260510055605 | 22 | 65 | 0.0 | 0.0 | 0.00 | 0.48 | 0.00 | 99 | 1014.0 |
| 20260510054605 | 21 | 65 | 0.0 | 1.6 | 0.00 | 0.48 | 0.00 | 99 | 1014.1 |
| 20260510053606 | 21 | 318 | 0.0 | 0.0 | 0.00 | 0.48 | 0.00 | 99 | 1014.2 |
| 20260510052604 | 21 | 318 | 0.0 | 0.0 | 0.00 | 0.48 | 0.00 | 99 | 1014.3 |
| 20260510052105 | 21 | 318 | 0.0 | 0.0 | 0.00 | 0.48 | 0.00 | 99 | 1014.3 |
| 20260510051605 | 21 | 318 | 0.0 | 0.0 | 0.00 | 0.48 | 0.00 | 99 | 1014.3 |
| 20260510051106 | 21 | 318 | 0.0 | 0.0 | 0.00 | 0.48 | 0.00 | 99 | 1014.4 |
| 20260510050605 | 21 | 318 | 0.0 | 0.0 | 0.00 | 0.48 | 0.00 | 99 | 1014.5 |
| 20260510050105 | 21 | 318 | 0.0 | 0.0 | 0.00 | 0.48 | 0.00 | 99 | 1014.6 |
| 20260510045605 | 21 | 318 | 0.0 | 0.0 | 0.00 | 0.48 | 0.00 | 99 | 1014.7 |
| 20260510045104 | 21 | 318 | 0.0 | 0.0 | 0.00 | 0.48 | 0.00 | 99 | 1014.6 |
| 20260510044604 | 21 | 318 | 0.0 | 0.0 | 0.00 | 0.48 | 0.00 | 99 | 1014.6 |
| 20260510044104 | 21 | 318 | 0.0 | 0.0 | 0.00 | 0.48 | 0.00 | 99 | 1014.6 |
| 20260510043605 | 21 | 318 | 0.0 | 0.0 | 0.00 | 0.48 | 0.00 | 99 | 1014.7 |
| 20260510043105 | 21 | 318 | 0.0 | 0.0 | 0.00 | 0.48 | 0.00 | 99 | 1014.7 |
| 20260510042605 | 21 | 318 | 0.0 | 0.0 | 0.00 | 0.48 | 0.00 | 99 | 1014.8 |
| 20260510041604 | 21 | 318 | 0.0 | 0.0 | 0.00 | 0.48 | 0.00 | 99 | 1014.7 |
| 20260510041105 | 21 | 318 | 0.0 | 0.0 | 0.00 | 0.48 | 0.00 | 99 | 1014.6 |
| 20260510040604 | 22 | 318 | 0.0 | 0.0 | 0.00 | 0.48 | 0.00 | 99 | 1014.7 |
| 20260510040105 | 22 | 318 | 0.0 | 0.0 | 0.00 | 0.48 | 0.00 | 99 | 1014.6 |
| 20260510035605 | 22 | 318 | 0.0 | 0.0 | 0.00 | 0.48 | 0.48 | 99 | 1014.7 |
| 20260510035105 | 22 | 318 | 0.0 | 0.0 | 0.00 | 0.48 | 0.48 | 99 | 1014.8 |
| 20260510034605 | 22 | 318 | 0.0 | 0.0 | 0.00 | 0.48 | 0.48 | 99 | 1014.8 |
| 20260510034104 | 22 | 318 | 0.0 | 0.0 | 0.00 | 0.48 | 0.48 | 99 | 1014.8 |
| 20260510033104 | 22 | 318 | 0.0 | 0.0 | 0.00 | 0.48 | 0.48 | 99 | 1014.6 |
| 20260510032105 | 22 | 318 | 0.0 | 0.0 | 0.00 | 0.48 | 0.48 | 99 | 1014.6 |
| 20260510031604 | 22 | 318 | 0.0 | 0.0 | 0.00 | 0.48 | 0.48 | 99 | 1014.7 |
| 20260510031104 | 22 | 318 | 0.0 | 0.0 | 0.00 | 0.48 | 0.48 | 99 | 1014.8 |
| 20260510030104 | 22 | 318 | 0.0 | 0.0 | 0.00 | 0.48 | 0.48 | 99 | 1014.5 |
| 20260510025604 | 22 | 318 | 0.0 | 0.0 | 0.00 | 0.48 | 0.48 | 99 | 1014.6 |
| 20260510025104 | 22 | 318 | 0.0 | 0.0 | 0.00 | 0.48 | 0.48 | 99 | 1014.7 |
| 20260510023603 | 22 | 318 | 0.0 | 0.0 | 0.00 | 0.48 | 0.48 | 99 | 1014.3 |
| 20260510023104 | 22 | 318 | 0.0 | 0.0 | 0.00 | 0.48 | 0.48 | 99 | 1014.3 |
| 20260510022104 | 22 | 318 | 0.0 | 0.0 | 0.00 | 0.48 | 0.48 | 99 | 1014.3 |
| 20260510021604 | 22 | 318 | 0.0 | 0.0 | 0.00 | 0.48 | 0.48 | 99 | 1014.3 |
| 20260510021104 | 22 | 318 | 0.0 | 0.0 | 0.00 | 0.48 | 0.48 | 99 | 1014.2 |
| 20260510020604 | 22 | 318 | 0.0 | 0.0 | 0.00 | 0.48 | 0.48 | 99 | 1014.0 |
| 20260510015604 | 22 | 318 | 0.0 | 0.0 | 0.00 | 0.48 | 0.48 | 99 | 1014.0 |
| 20260510015104 | 22 | 318 | 0.0 | 0.0 | 0.00 | 0.48 | 0.48 | 99 | 1014.0 |
| 20260510014604 | 22 | 318 | 0.0 | 0.0 | 0.00 | 0.48 | 0.48 | 99 | 1013.6 |
| 20260510014104 | 22 | 318 | 0.0 | 0.0 | 0.00 | 0.48 | 0.48 | 99 | 1013.9 |
| 20260510013604 | 22 | 318 | 0.0 | 0.0 | 0.00 | 0.48 | 0.48 | 99 | 1013.8 |
| 20260510013104 | 22 | 318 | 0.0 | 0.0 | 0.00 | 0.48 | 0.48 | 99 | 1013.9 |
| 20260510012605 | 22 | 318 | 0.0 | 0.0 | 0.00 | 0.48 | 0.48 | 99 | 1013.7 |
| 20260510012104 | 22 | 318 | 0.0 | 0.0 | 0.00 | 0.48 | 0.48 | 99 | 1013.8 |
| 20260510011104 | 22 | 318 | 0.0 | 0.0 | 0.00 | 0.48 | 0.48 | 99 | 1013.7 |
| 20260510010609 | 22 | 318 | 0.0 | 0.0 | 0.00 | 0.48 | 0.48 | 99 | 1013.8 |
| 20260510005609 | 22 | 318 | 0.0 | 0.0 | 0.00 | 0.48 | 0.48 | 99 | 1013.7 |
| 20260510005108 | 22 | 318 | 0.0 | 0.0 | 0.00 | 0.48 | 0.48 | 99 | 1013.7 |
| 20260510004609 | 22 | 318 | 0.0 | 0.0 | 0.00 | 0.48 | 0.48 | 99 | 1013.7 |
| 20260510003608 | 22 | 318 | 0.0 | 0.0 | 0.00 | 0.48 | 0.48 | 99 | 1013.5 |
| 20260510003109 | 22 | 318 | 0.0 | 0.0 | 0.00 | 0.48 | 0.48 | 99 | 1013.5 |
| 20260510002609 | 22 | 318 | 0.0 | 0.0 | 0.00 | 0.48 | 0.48 | 99 | 1013.3 |
| 20260510002108 | 22 | 318 | 0.0 | 0.0 | 0.00 | 0.48 | 0.48 | 99 | 1013.3 |
| 20260510001608 | 22 | 318 | 0.0 | 0.0 | 0.00 | 0.48 | 0.48 | 99 | 1013.4 |
| 20260510001109 | 22 | 318 | 0.0 | 0.0 | 0.00 | 0.48 | 0.48 | 99 | 1013.3 |
| 20260510000609 | 22 | 318 | 0.0 | 0.0 | 0.00 | 0.48 | 0.48 | 99 | 1013.2 |
| 20260510000109 | 22 | 318 | 0.0 | 0.0 | 0.00 | 0.48 | 0.48 | 99 | 1013.0 |
| 20260509235109 | 22 | 318 | 0.0 | 0.0 | 0.00 | 0.48 | 0.48 | 99 | 1013.0 |
| 20260509234608 | 22 | 318 | 0.0 | 0.0 | 0.00 | 0.48 | 0.48 | 98 | 1012.9 |
| 20260509234109 | 22 | 318 | 0.0 | 0.0 | 0.00 | 0.48 | 0.48 | 98 | 1013.0 |
| 20260509233609 | 22 | 318 | 0.0 | 0.0 | 0.00 | 0.48 | 0.48 | 98 | 1013.0 |
| 20260509233108 | 22 | 318 | 0.0 | 0.0 | 0.00 | 0.48 | 0.48 | 99 | 1012.9 |
| 20260509232109 | 22 | 318 | 0.0 | 0.0 | 0.00 | 0.48 | 0.48 | 98 | 1012.9 |
| 20260509231609 | 22 | 318 | 0.0 | 0.0 | 0.00 | 0.48 | 0.48 | 98 | 1012.8 |
| 20260509231108 | 22 | 318 | 0.0 | 0.0 | 0.00 | 0.48 | 0.48 | 98 | 1012.8 |
| 20260509230108 | 22 | 318 | 0.0 | 0.0 | 0.00 | 0.48 | 0.48 | 98 | 1012.6 |
| 20260509225608 | 22 | 318 | 0.0 | 0.0 | 0.00 | 0.48 | 0.48 | 98 | 1012.6 |
| 20260509225108 | 22 | 318 | 0.0 | 0.0 | 0.00 | 0.48 | 0.48 | 98 | 1012.6 |
| 20260509224608 | 22 | 318 | 0.0 | 0.0 | 0.00 | 0.48 | 0.48 | 98 | 1012.5 |
| 20260509224108 | 22 | 318 | 0.0 | 0.0 | 0.00 | 0.51 | 0.48 | 98 | 1012.5 |
| 20260509223608 | 22 | 318 | 0.0 | 0.0 | 0.00 | 0.53 | 0.48 | 98 | 1012.5 |
| 20260509223107 | 22 | 318 | 0.0 | 0.0 | 0.00 | 0.58 | 0.48 | 98 | 1012.5 |
| 20260509222608 | 22 | 318 | 0.0 | 0.0 | 0.00 | 0.69 | 0.48 | 98 | 1012.5 |
| 20260509222109 | 22 | 318 | 0.0 | 0.0 | 0.00 | 0.71 | 0.48 | 98 | 1012.4 |
| 20260509221608 | 22 | 318 | 0.0 | 0.0 | 0.00 | 0.74 | 0.48 | 98 | 1012.4 |
| 20260509221109 | 22 | 318 | 0.0 | 0.0 | 0.00 | 0.74 | 0.48 | 98 | 1012.5 |
| 20260509220607 | 22 | 318 | 0.0 | 0.0 | 0.00 | 0.76 | 0.48 | 98 | 1012.5 |
| 20260509220108 | 22 | 318 | 0.0 | 0.0 | 0.00 | 0.91 | 0.48 | 98 | 1012.5 |
| 20260509215608 | 22 | 318 | 0.0 | 1.6 | 0.00 | 1.75 | 0.48 | 98 | 1012.5 |
| 20260509215108 | 22 | 318 | 0.0 | 1.6 | 0.00 | 2.11 | 0.48 | 98 | 1012.4 |
| 20260509214608 | 22 | 318 | 0.0 | 0.0 | 0.00 | 2.21 | 0.48 | 98 | 1012.5 |
| 20260509214107 | 22 | 318 | 0.0 | 1.6 | 0.00 | 2.29 | 0.48 | 98 | 1012.5 |
| 20260509213609 | 22 | 318 | 0.0 | 1.6 | 0.00 | 2.34 | 0.48 | 98 | 1012.4 |
| 20260509213108 | 22 | 318 | 0.0 | 1.6 | 0.00 | 2.34 | 0.48 | 98 | 1012.4 |
| 20260509212607 | 22 | 318 | 0.0 | 1.6 | 0.00 | 2.34 | 0.48 | 98 | 1012.5 |
| 20260509211607 | 22 | 318 | 0.0 | 1.6 | 0.00 | 2.34 | 0.48 | 98 | 1012.6 |
| 20260509211107 | 22 | 318 | 0.0 | 1.6 | 0.00 | 2.34 | 0.48 | 97 | 1012.5 |
| 20260509205607 | 23 | 316 | 0.0 | 0.0 | 0.05 | 2.34 | 0.48 | 98 | 1012.5 |
| 20260509205108 | 23 | 316 | 0.0 | 1.6 | 0.41 | 2.34 | 0.48 | 98 | 1012.4 |
| 20260509204608 | 23 | 316 | 1.6 | 3.2 | 0.48 | 2.34 | 0.48 | 98 | 1012.5 |
| 20260509204107 | 23 | 316 | 0.0 | 0.0 | 0.48 | 2.34 | 0.48 | 98 | 1012.4 |
| 20260509203607 | 22 | 316 | 0.0 | 0.0 | 0.48 | 2.34 | 0.48 | 98 | 1012.5 |
| 20260509202107 | 22 | 316 | 0.0 | 1.6 | 0.48 | 2.34 | 0.48 | 97 | 1012.2 |
| 20260509200108 | 22 | 9 | 4.8 | 12.9 | 0.46 | 2.31 | 0.46 | 93 | 1012.3 |
| 20260509195608 | 23 | 333 | 9.7 | 41.8 | 0.43 | 2.29 | 0.43 | 90 | 1012.0 |
| 20260509195108 | 26 | 315 | 12.9 | 27.4 | 0.08 | 1.93 | 0.08 | 82 | 1012.9 |
| 20260509194608 | 27 | 309 | 0.0 | 1.6 | 0.00 | 1.85 | 0.00 | 80 | 1012.2 |
| 20260509194108 | 27 | 309 | 0.0 | 4.8 | 0.00 | 1.85 | 0.00 | 77 | 1011.9 |
| 20260509193607 | 28 | 308 | 1.6 | 4.8 | 0.00 | 1.85 | 0.00 | 75 | 1012.2 |
| 20260509193108 | 28 | 308 | 1.6 | 4.8 | 0.00 | 1.85 | 0.00 | 72 | 1011.9 |
| 20260509192107 | 28 | 311 | 1.6 | 3.2 | 0.00 | 1.85 | 0.00 | 70 | 1011.5 |
| 20260509191608 | 28 | 311 | 1.6 | 4.8 | 0.00 | 1.85 | 0.00 | 69 | 1011.7 |
| 20260509191107 | 29 | 311 | 3.2 | 4.8 | 0.00 | 1.85 | 0.00 | 70 | 1011.7 |
| 20260509190608 | 29 | 320 | 3.2 | 4.8 | 0.00 | 1.85 | 0.00 | 68 | 1011.6 |
| 20260509190108 | 29 | 350 | 0.0 | 3.2 | 0.00 | 1.85 | 0.00 | 70 | 1011.8 |
| 20260509185607 | 29 | 350 | 3.2 | 8.0 | 0.00 | 1.85 | 0.00 | 68 | 1011.8 |
| 20260509185108 | 29 | 316 | 1.6 | 3.2 | 0.00 | 1.85 | 0.00 | 69 | 1012.0 |
| 20260509184607 | 30 | 315 | 3.2 | 8.0 | 0.00 | 1.85 | 0.00 | 68 | 1012.0 |
| 20260509183607 | 30 | 316 | 1.6 | 11.3 | 0.00 | 1.85 | 0.00 | 67 | 1012.1 |
| 20260509183107 | 30 | 307 | 4.8 | 8.0 | 0.00 | 1.85 | 0.00 | 67 | 1012.3 |
| 20260509182607 | 30 | 309 | 3.2 | 11.3 | 0.00 | 1.85 | 0.00 | 69 | 1012.4 |
| 20260509182107 | 30 | 311 | 4.8 | 9.7 | 0.00 | 1.85 | 0.00 | 68 | 1012.5 |
| 20260509181607 | 30 | 100 | 1.6 | 4.8 | 0.00 | 1.85 | 0.00 | 69 | 1012.5 |
| 20260509181108 | 30 | 11 | 1.6 | 4.8 | 0.00 | 1.85 | 0.00 | 71 | 1012.6 |
| 20260509180608 | 30 | 305 | 4.8 | 12.9 | 0.00 | 1.85 | 0.00 | 69 | 1012.6 |
| 20260509180107 | 30 | 335 | 3.2 | 8.0 | 0.00 | 1.85 | 0.00 | 69 | 1012.7 |
| 20260509175608 | 30 | 311 | 3.2 | 4.8 | 0.00 | 1.85 | 0.00 | 71 | 1012.7 |
| 20260509175107 | 30 | 322 | 1.6 | 4.8 | 0.00 | 1.85 | 0.00 | 70 | 1012.7 |
| 20260509174607 | 29 | 324 | 1.6 | 4.8 | 0.00 | 1.85 | 0.00 | 70 | 1012.8 |
| 20260509174107 | 30 | 352 | 1.6 | 4.8 | 0.00 | 1.85 | 0.00 | 69 | 1012.9 |
| 20260509173607 | 30 | 135 | 1.6 | 4.8 | 0.00 | 1.85 | 0.00 | 69 | 1012.8 |
| 20260509172607 | 29 | 1 | 0.0 | 4.8 | 0.00 | 1.85 | 0.00 | 71 | 1012.9 |
| 20260509172107 | 29 | 347 | 4.8 | 8.0 | 0.00 | 1.85 | 0.00 | 70 | 1012.9 |
| 20260509171606 | 29 | 321 | 3.2 | 4.8 | 0.00 | 1.85 | 0.00 | 70 | 1013.0 |